Welcome to La Porte Aviation Services!

An aviation adventure awaits

Current Weather Conditions

Available data for KPPO from the past 2 hours
LA PORTE, IN
Metar
KPPO 180955Z AUTO 05004KT 2SM -SN 00/00 A3026 RMK AO2 SKY OBSCURED T00001002
Pireps (4)
ORD UA /OV ORD 4 MILE FINAL RUNWAY 27L/TM 0913/FL2700/TP B77L/SK BASES REPORTED AT 2700
ORD UA /OV ORD 4 MILE FINAL RUNWAY 27L/TM 0913/FL2700/TP B77L/SK BASES REPORTED AT 2700
ORD UA /OV ORD 4 MILE FINAL RUNWAY 27L/TM 0913/FL2700/TP B77L/SK BASES REPORTED AT 2700
DPA UA /OV KDPA/TM 0849/FL025/TP E50P/SK 040 BKN/IC LGT RIME BLO 030 LGT CLR BLO 025

Connect with us on Facebook!

Facebook By Weblizar Powered By Weblizar